sensor_id;sensor_type;location;lat;lon;timestamp;temperature;humidity
3194;DHT22;1608;50.860;13.466;2022-09-27T00:01:21;13.80;99.90
3194;DHT22;1608;50.860;13.466;2022-09-27T00:03:52;13.70;99.90
3194;DHT22;1608;50.860;13.466;2022-09-27T00:06:22;13.70;99.90
3194;DHT22;1608;50.860;13.466;2022-09-27T00:08:50;13.70;99.90
3194;DHT22;1608;50.860;13.466;2022-09-27T00:11:22;13.70;99.90
3194;DHT22;1608;50.860;13.466;2022-09-27T00:13:49;13.80;99.90
3194;DHT22;1608;50.860;13.466;2022-09-27T00:16:16;13.70;99.90
3194;DHT22;1608;50.860;13.466;2022-09-27T00:18:43;13.70;99.90
3194;DHT22;1608;50.860;13.466;2022-09-27T00:21:12;13.70;99.90
3194;DHT22;1608;50.860;13.466;2022-09-27T00:23:39;13.70;99.90
3194;DHT22;1608;50.860;13.466;2022-09-27T00:26:07;13.60;99.90
3194;DHT22;1608;50.860;13.466;2022-09-27T00:28:36;13.60;99.90
3194;DHT22;1608;50.860;13.466;2022-09-27T00:31:04;13.60;99.90
3194;DHT22;1608;50.860;13.466;2022-09-27T00:33:37;13.60;99.90
3194;DHT22;1608;50.860;13.466;2022-09-27T00:36:04;13.60;99.90
3194;DHT22;1608;50.860;13.466;2022-09-27T00:38:33;13.60;99.90
3194;DHT22;1608;50.860;13.466;2022-09-27T00:40:59;13.70;99.90
3194;DHT22;1608;50.860;13.466;2022-09-27T00:43:40;13.80;99.90
3194;DHT22;1608;50.860;13.466;2022-09-27T00:46:08;13.70;99.90
3194;DHT22;1608;50.860;13.466;2022-09-27T00:48:35;13.60;99.90
3194;DHT22;1608;50.860;13.466;2022-09-27T00:51:04;13.60;99.90
3194;DHT22;1608;50.860;13.466;2022-09-27T00:53:36;13.50;99.90
3194;DHT22;1608;50.860;13.466;2022-09-27T00:56:07;13.50;99.90
3194;DHT22;1608;50.860;13.466;2022-09-27T00:58:37;13.50;99.90
3194;DHT22;1608;50.860;13.466;2022-09-27T01:01:07;13.50;99.90
3194;DHT22;1608;50.860;13.466;2022-09-27T01:03:39;13.60;99.90
3194;DHT22;1608;50.860;13.466;2022-09-27T01:06:09;13.60;99.90
3194;DHT22;1608;50.860;13.466;2022-09-27T01:08:38;13.60;99.90
3194;DHT22;1608;50.860;13.466;2022-09-27T01:11:13;13.60;99.90
3194;DHT22;1608;50.860;13.466;2022-09-27T01:13:55;13.60;99.90
3194;DHT22;1608;50.860;13.466;2022-09-27T01:16:34;13.60;99.90
3194;DHT22;1608;50.860;13.466;2022-09-27T01:19:09;13.60;99.90
3194;DHT22;1608;50.860;13.466;2022-09-27T01:21:51;13.60;99.90
3194;DHT22;1608;50.860;13.466;2022-09-27T01:24:55;13.70;99.90
3194;DHT22;1608;50.860;13.466;2022-09-27T01:27:48;13.70;99.90
3194;DHT22;1608;50.860;13.466;2022-09-27T01:30:24;13.60;99.90
3194;DHT22;1608;50.860;13.466;2022-09-27T01:33:10;13.60;99.90
3194;DHT22;1608;50.860;13.466;2022-09-27T01:35:49;13.50;99.90
3194;DHT22;1608;50.860;13.466;2022-09-27T01:38:24;13.60;99.90
3194;DHT22;1608;50.860;13.466;2022-09-27T01:41:00;13.60;99.90
3194;DHT22;1608;50.860;13.466;2022-09-27T01:43:33;13.60;99.90
3194;DHT22;1608;50.860;13.466;2022-09-27T01:46:04;13.60;99.90
3194;DHT22;1608;50.860;13.466;2022-09-27T01:48:37;13.50;99.90
3194;DHT22;1608;50.860;13.466;2022-09-27T01:51:09;13.60;99.90
3194;DHT22;1608;50.860;13.466;2022-09-27T01:53:40;13.50;99.90
3194;DHT22;1608;50.860;13.466;2022-09-27T01:56:12;13.40;99.90
3194;DHT22;1608;50.860;13.466;2022-09-27T01:58:42;13.40;99.90
3194;DHT22;1608;50.860;13.466;2022-09-27T02:01:14;13.40;99.90
3194;DHT22;1608;50.860;13.466;2022-09-27T02:03:46;13.40;99.90
3194;DHT22;1608;50.860;13.466;2022-09-27T02:06:18;13.50;99.90
3194;DHT22;1608;50.860;13.466;2022-09-27T02:08:48;13.50;99.90
3194;DHT22;1608;50.860;13.466;2022-09-27T02:11:16;13.50;99.90
3194;DHT22;1608;50.860;13.466;2022-09-27T02:13:47;13.40;99.90
3194;DHT22;1608;50.860;13.466;2022-09-27T02:16:22;13.50;99.90
3194;DHT22;1608;50.860;13.466;2022-09-27T02:19:00;13.50;99.90
3194;DHT22;1608;50.860;13.466;2022-09-27T02:21:35;13.60;99.90
3194;DHT22;1608;50.860;13.466;2022-09-27T02:24:05;13.50;99.90
3194;DHT22;1608;50.860;13.466;2022-09-27T02:26:36;13.40;99.90
3194;DHT22;1608;50.860;13.466;2022-09-27T02:29:07;13.40;99.90
3194;DHT22;1608;50.860;13.466;2022-09-27T02:31:36;13.40;99.90
3194;DHT22;1608;50.860;13.466;2022-09-27T02:34:06;13.40;99.90
3194;DHT22;1608;50.860;13.466;2022-09-27T02:36:35;13.40;99.90
3194;DHT22;1608;50.860;13.466;2022-09-27T02:39:02;13.50;99.90
3194;DHT22;1608;50.860;13.466;2022-09-27T02:41:29;13.60;99.90
3194;DHT22;1608;50.860;13.466;2022-09-27T02:43:58;13.50;99.90
3194;DHT22;1608;50.860;13.466;2022-09-27T02:49:30;13.50;99.90
3194;DHT22;1608;50.860;13.466;2022-09-27T02:52:05;13.50;99.90
3194;DHT22;1608;50.860;13.466;2022-09-27T02:54:42;13.40;99.90
3194;DHT22;1608;50.860;13.466;2022-09-27T02:57:20;13.40;99.90
3194;DHT22;1608;50.860;13.466;2022-09-27T02:59:59;13.40;99.90
3194;DHT22;1608;50.860;13.466;2022-09-27T03:02:35;13.40;99.90
3194;DHT22;1608;50.860;13.466;2022-09-27T03:05:08;13.40;99.90
3194;DHT22;1608;50.860;13.466;2022-09-27T03:07:36;13.50;99.90
3194;DHT22;1608;50.860;13.466;2022-09-27T03:10:04;13.40;99.90
3194;DHT22;1608;50.860;13.466;2022-09-27T03:12:31;13.40;99.90
3194;DHT22;1608;50.860;13.466;2022-09-27T03:14:59;13.30;99.90
3194;DHT22;1608;50.860;13.466;2022-09-27T03:17:26;13.40;99.90
3194;DHT22;1608;50.860;13.466;2022-09-27T03:19:54;13.50;99.90
3194;DHT22;1608;50.860;13.466;2022-09-27T03:22:21;13.50;99.90
3194;DHT22;1608;50.860;13.466;2022-09-27T03:24:48;13.60;99.90
3194;DHT22;1608;50.860;13.466;2022-09-27T03:27:14;13.60;99.90
3194;DHT22;1608;50.860;13.466;2022-09-27T03:29:41;13.50;99.90
3194;DHT22;1608;50.860;13.466;2022-09-27T03:32:08;13.60;99.90
3194;DHT22;1608;50.860;13.466;2022-09-27T03:34:35;13.50;99.90
3194;DHT22;1608;50.860;13.466;2022-09-27T03:37:03;13.60;99.90
3194;DHT22;1608;50.860;13.466;2022-09-27T03:39:30;13.60;99.90
3194;DHT22;1608;50.860;13.466;2022-09-27T03:41:57;13.70;99.90
3194;DHT22;1608;50.860;13.466;2022-09-27T03:44:24;13.80;99.90
3194;DHT22;1608;50.860;13.466;2022-09-27T03:46:51;13.80;99.90
3194;DHT22;1608;50.860;13.466;2022-09-27T03:49:18;13.30;99.90
3194;DHT22;1608;50.860;13.466;2022-09-27T03:51:45;13.70;99.90
3194;DHT22;1608;50.860;13.466;2022-09-27T03:54:13;13.70;99.90
3194;DHT22;1608;50.860;13.466;2022-09-27T03:56:40;13.60;99.90
3194;DHT22;1608;50.860;13.466;2022-09-27T03:59:06;13.60;99.90
3194;DHT22;1608;50.860;13.466;2022-09-27T04:01:33;13.50;99.90
3194;DHT22;1608;50.860;13.466;2022-09-27T04:04:02;13.40;99.90
3194;DHT22;1608;50.860;13.466;2022-09-27T04:06:29;13.50;99.90
3194;DHT22;1608;50.860;13.466;2022-09-27T04:08:55;13.60;99.90
3194;DHT22;1608;50.860;13.466;2022-09-27T04:11:24;13.60;99.90
3194;DHT22;1608;50.860;13.466;2022-09-27T04:13:50;13.60;99.90
3194;DHT22;1608;50.860;13.466;2022-09-27T04:16:17;13.50;99.90
3194;DHT22;1608;50.860;13.466;2022-09-27T04:18:44;13.50;99.90
3194;DHT22;1608;50.860;13.466;2022-09-27T04:21:11;13.60;99.90
3194;DHT22;1608;50.860;13.466;2022-09-27T04:23:38;13.50;99.90
3194;DHT22;1608;50.860;13.466;2022-09-27T04:26:04;13.70;99.90
3194;DHT22;1608;50.860;13.466;2022-09-27T04:28:33;13.70;99.90
3194;DHT22;1608;50.860;13.466;2022-09-27T04:30:59;13.70;99.90
3194;DHT22;1608;50.860;13.466;2022-09-27T04:33:26;13.60;99.90
3194;DHT22;1608;50.860;13.466;2022-09-27T04:35:53;13.60;99.90
3194;DHT22;1608;50.860;13.466;2022-09-27T04:38:37;13.60;99.90
3194;DHT22;1608;50.860;13.466;2022-09-27T04:41:04;13.60;99.90
3194;DHT22;1608;50.860;13.466;2022-09-27T04:43:33;13.50;99.90
3194;DHT22;1608;50.860;13.466;2022-09-27T04:46:00;13.50;99.90
3194;DHT22;1608;50.860;13.466;2022-09-27T04:48:27;13.60;99.90
3194;DHT22;1608;50.860;13.466;2022-09-27T04:50:57;13.60;99.90
3194;DHT22;1608;50.860;13.466;2022-09-27T04:53:24;13.60;99.90
3194;DHT22;1608;50.860;13.466;2022-09-27T04:55:52;13.60;99.90
3194;DHT22;1608;50.860;13.466;2022-09-27T04:58:19;13.40;99.90
3194;DHT22;1608;50.860;13.466;2022-09-27T05:00:48;13.50;99.90
3194;DHT22;1608;50.860;13.466;2022-09-27T05:03:16;13.50;99.90
3194;DHT22;1608;50.860;13.466;2022-09-27T05:05:43;13.40;99.90
3194;DHT22;1608;50.860;13.466;2022-09-27T05:08:10;13.30;99.90
3194;DHT22;1608;50.860;13.466;2022-09-27T05:10:37;13.30;99.90
3194;DHT22;1608;50.860;13.466;2022-09-27T05:13:04;13.30;99.90
3194;DHT22;1608;50.860;13.466;2022-09-27T05:15:31;13.30;99.90
3194;DHT22;1608;50.860;13.466;2022-09-27T05:17:59;13.30;99.90
3194;DHT22;1608;50.860;13.466;2022-09-27T05:20:26;13.30;99.90
3194;DHT22;1608;50.860;13.466;2022-09-27T05:22:53;13.30;99.90
3194;DHT22;1608;50.860;13.466;2022-09-27T05:25:20;13.30;99.90
3194;DHT22;1608;50.860;13.466;2022-09-27T05:27:48;13.20;99.90
3194;DHT22;1608;50.860;13.466;2022-09-27T05:30:14;13.20;99.90
3194;DHT22;1608;50.860;13.466;2022-09-27T05:32:42;13.20;99.90
3194;DHT22;1608;50.860;13.466;2022-09-27T05:35:11;13.30;99.90
3194;DHT22;1608;50.860;13.466;2022-09-27T05:37:38;13.20;99.90
3194;DHT22;1608;50.860;13.466;2022-09-27T05:40:06;13.20;99.90
3194;DHT22;1608;50.860;13.466;2022-09-27T05:42:32;13.30;99.90
3194;DHT22;1608;50.860;13.466;2022-09-27T05:45:00;13.40;99.90
3194;DHT22;1608;50.860;13.466;2022-09-27T05:47:27;13.40;99.90
3194;DHT22;1608;50.860;13.466;2022-09-27T05:49:53;13.40;99.90
3194;DHT22;1608;50.860;13.466;2022-09-27T05:52:22;13.50;99.90
3194;DHT22;1608;50.860;13.466;2022-09-27T05:54:49;13.50;99.90
3194;DHT22;1608;50.860;13.466;2022-09-27T05:57:16;13.50;99.90
3194;DHT22;1608;50.860;13.466;2022-09-27T05:59:43;13.50;99.90
3194;DHT22;1608;50.860;13.466;2022-09-27T06:02:10;13.50;99.90
3194;DHT22;1608;50.860;13.466;2022-09-27T06:04:37;13.50;99.90
3194;DHT22;1608;50.860;13.466;2022-09-27T06:07:04;13.50;99.90
3194;DHT22;1608;50.860;13.466;2022-09-27T06:09:32;13.50;99.90
3194;DHT22;1608;50.860;13.466;2022-09-27T06:11:59;13.40;99.90
3194;DHT22;1608;50.860;13.466;2022-09-27T06:14:25;13.40;99.90
3194;DHT22;1608;50.860;13.466;2022-09-27T06:16:52;13.40;99.90
3194;DHT22;1608;50.860;13.466;2022-09-27T06:19:19;13.40;99.90
3194;DHT22;1608;50.860;13.466;2022-09-27T06:21:48;13.40;99.90
3194;DHT22;1608;50.860;13.466;2022-09-27T06:24:15;13.50;99.90
3194;DHT22;1608;50.860;13.466;2022-09-27T06:26:43;13.40;99.90
3194;DHT22;1608;50.860;13.466;2022-09-27T06:29:10;13.50;99.90
3194;DHT22;1608;50.860;13.466;2022-09-27T06:31:37;13.60;99.90
3194;DHT22;1608;50.860;13.466;2022-09-27T06:34:04;13.70;99.90
3194;DHT22;1608;50.860;13.466;2022-09-27T06:36:31;13.60;99.90
3194;DHT22;1608;50.860;13.466;2022-09-27T06:38:58;13.70;99.90
3194;DHT22;1608;50.860;13.466;2022-09-27T06:41:26;13.80;99.90
3194;DHT22;1608;50.860;13.466;2022-09-27T06:43:54;13.90;99.90
3194;DHT22;1608;50.860;13.466;2022-09-27T06:46:21;14.00;99.90
3194;DHT22;1608;50.860;13.466;2022-09-27T06:48:47;14.10;99.90
3194;DHT22;1608;50.860;13.466;2022-09-27T06:51:14;14.20;99.90
3194;DHT22;1608;50.860;13.466;2022-09-27T06:53:41;14.10;99.90
3194;DHT22;1608;50.860;13.466;2022-09-27T06:56:08;14.00;99.90
3194;DHT22;1608;50.860;13.466;2022-09-27T06:58:35;14.00;99.90
3194;DHT22;1608;50.860;13.466;2022-09-27T07:01:20;14.10;99.90
3194;DHT22;1608;50.860;13.466;2022-09-27T07:03:49;14.20;99.90
3194;DHT22;1608;50.860;13.466;2022-09-27T07:06:17;14.30;99.90
3194;DHT22;1608;50.860;13.466;2022-09-27T07:08:48;14.30;99.90
3194;DHT22;1608;50.860;13.466;2022-09-27T07:11:15;14.40;99.90
3194;DHT22;1608;50.860;13.466;2022-09-27T07:13:42;14.60;99.90
3194;DHT22;1608;50.860;13.466;2022-09-27T07:16:10;14.80;99.90
3194;DHT22;1608;50.860;13.466;2022-09-27T07:18:39;14.90;99.90
3194;DHT22;1608;50.860;13.466;2022-09-27T07:21:05;15.20;99.90
3194;DHT22;1608;50.860;13.466;2022-09-27T07:23:33;15.10;99.90
3194;DHT22;1608;50.860;13.466;2022-09-27T07:26:01;15.10;99.90
3194;DHT22;1608;50.860;13.466;2022-09-27T07:28:33;15.00;99.90
3194;DHT22;1608;50.860;13.466;2022-09-27T07:31:00;14.80;99.90
3194;DHT22;1608;50.860;13.466;2022-09-27T07:33:28;14.80;99.90
3194;DHT22;1608;50.860;13.466;2022-09-27T07:35:56;14.80;99.90
3194;DHT22;1608;50.860;13.466;2022-09-27T07:38:23;14.80;99.90
3194;DHT22;1608;50.860;13.466;2022-09-27T07:40:50;14.70;99.90
3194;DHT22;1608;50.860;13.466;2022-09-27T07:43:17;14.80;99.90
3194;DHT22;1608;50.860;13.466;2022-09-27T07:45:45;14.80;99.90
3194;DHT22;1608;50.860;13.466;2022-09-27T07:48:13;14.80;99.90
3194;DHT22;1608;50.860;13.466;2022-09-27T07:50:40;14.90;99.90
3194;DHT22;1608;50.860;13.466;2022-09-27T07:53:09;15.00;99.90
3194;DHT22;1608;50.860;13.466;2022-09-27T07:55:37;15.00;99.90
3194;DHT22;1608;50.860;13.466;2022-09-27T07:58:05;15.00;99.90
3194;DHT22;1608;50.860;13.466;2022-09-27T08:00:33;15.10;99.90
3194;DHT22;1608;50.860;13.466;2022-09-27T08:03:03;15.20;99.90
3194;DHT22;1608;50.860;13.466;2022-09-27T08:05:32;15.40;99.90
3194;DHT22;1608;50.860;13.466;2022-09-27T08:07:59;15.90;99.90
3194;DHT22;1608;50.860;13.466;2022-09-27T08:10:28;16.20;99.90
3194;DHT22;1608;50.860;13.466;2022-09-27T08:12:56;16.70;99.90
3194;DHT22;1608;50.860;13.466;2022-09-27T08:15:23;17.00;99.90
3194;DHT22;1608;50.860;13.466;2022-09-27T08:17:49;17.30;99.90
3194;DHT22;1608;50.860;13.466;2022-09-27T08:20:16;17.70;99.90
3194;DHT22;1608;50.860;13.466;2022-09-27T08:22:43;18.10;99.90
3194;DHT22;1608;50.860;13.466;2022-09-27T08:25:10;17.90;99.90
3194;DHT22;1608;50.860;13.466;2022-09-27T08:27:40;17.80;99.90
3194;DHT22;1608;50.860;13.466;2022-09-27T08:30:07;17.80;99.90
3194;DHT22;1608;50.860;13.466;2022-09-27T08:32:34;17.80;99.90
3194;DHT22;1608;50.860;13.466;2022-09-27T08:35:03;17.70;99.90
3194;DHT22;1608;50.860;13.466;2022-09-27T08:37:31;17.20;99.90
3194;DHT22;1608;50.860;13.466;2022-09-27T08:39:58;17.20;99.90
3194;DHT22;1608;50.860;13.466;2022-09-27T08:42:31;17.00;99.90
3194;DHT22;1608;50.860;13.466;2022-09-27T08:45:11;16.90;99.90
3194;DHT22;1608;50.860;13.466;2022-09-27T08:47:41;16.70;99.90
3194;DHT22;1608;50.860;13.466;2022-09-27T08:50:18;16.60;99.90
3194;DHT22;1608;50.860;13.466;2022-09-27T08:52:50;16.50;99.90
3194;DHT22;1608;50.860;13.466;2022-09-27T08:55:23;16.30;99.90
3194;DHT22;1608;50.860;13.466;2022-09-27T08:57:54;16.10;99.90
3194;DHT22;1608;50.860;13.466;2022-09-27T09:00:28;15.90;99.90
3194;DHT22;1608;50.860;13.466;2022-09-27T09:02:55;15.80;99.90
3194;DHT22;1608;50.860;13.466;2022-09-27T09:05:27;15.50;99.90
3194;DHT22;1608;50.860;13.466;2022-09-27T09:08:14;15.40;99.90
3194;DHT22;1608;50.860;13.466;2022-09-27T09:10:50;15.40;99.90
3194;DHT22;1608;50.860;13.466;2022-09-27T09:13:58;15.30;99.90
3194;DHT22;1608;50.860;13.466;2022-09-27T09:16:40;15.30;99.90
3194;DHT22;1608;50.860;13.466;2022-09-27T09:19:24;15.20;99.90
3194;DHT22;1608;50.860;13.466;2022-09-27T09:22:02;15.50;99.90
3194;DHT22;1608;50.860;13.466;2022-09-27T09:24:42;15.90;99.90
3194;DHT22;1608;50.860;13.466;2022-09-27T09:27:17;15.90;99.90
3194;DHT22;1608;50.860;13.466;2022-09-27T09:30:00;16.00;99.90
3194;DHT22;1608;50.860;13.466;2022-09-27T09:32:40;16.10;99.90
3194;DHT22;1608;50.860;13.466;2022-09-27T09:35:14;16.20;99.90
3194;DHT22;1608;50.860;13.466;2022-09-27T09:37:45;16.10;99.90
3194;DHT22;1608;50.860;13.466;2022-09-27T09:40:19;16.20;99.90
3194;DHT22;1608;50.860;13.466;2022-09-27T09:42:51;16.20;99.90
3194;DHT22;1608;50.860;13.466;2022-09-27T09:45:20;16.10;99.90
3194;DHT22;1608;50.860;13.466;2022-09-27T09:47:53;16.30;99.90
3194;DHT22;1608;50.860;13.466;2022-09-27T09:50:25;16.50;99.90
3194;DHT22;1608;50.860;13.466;2022-09-27T09:52:56;16.60;99.90
3194;DHT22;1608;50.860;13.466;2022-09-27T09:55:27;16.80;99.90
3194;DHT22;1608;50.860;13.466;2022-09-27T09:58:04;17.20;99.90
3194;DHT22;1608;50.860;13.466;2022-09-27T10:00:37;17.40;99.90
3194;DHT22;1608;50.860;13.466;2022-09-27T10:03:05;17.40;99.90
3194;DHT22;1608;50.860;13.466;2022-09-27T10:05:32;17.40;99.90
3194;DHT22;1608;50.860;13.466;2022-09-27T10:08:02;17.20;99.90
3194;DHT22;1608;50.860;13.466;2022-09-27T10:10:30;17.00;99.90
3194;DHT22;1608;50.860;13.466;2022-09-27T10:12:56;17.10;99.90
3194;DHT22;1608;50.860;13.466;2022-09-27T10:15:26;17.00;99.90
3194;DHT22;1608;50.860;13.466;2022-09-27T10:17:56;16.90;99.90
3194;DHT22;1608;50.860;13.466;2022-09-27T10:20:31;16.70;99.90
3194;DHT22;1608;50.860;13.466;2022-09-27T10:23:04;16.60;99.90
3194;DHT22;1608;50.860;13.466;2022-09-27T10:25:45;16.60;99.90
3194;DHT22;1608;50.860;13.466;2022-09-27T10:28:27;16.70;99.90
3194;DHT22;1608;50.860;13.466;2022-09-27T10:30:59;16.70;99.90
3194;DHT22;1608;50.860;13.466;2022-09-27T10:33:26;16.50;99.90
3194;DHT22;1608;50.860;13.466;2022-09-27T10:35:56;16.30;99.90
3194;DHT22;1608;50.860;13.466;2022-09-27T10:38:26;16.30;99.90
3194;DHT22;1608;50.860;13.466;2022-09-27T10:40:54;16.20;99.90
3194;DHT22;1608;50.860;13.466;2022-09-27T10:43:29;16.20;99.90
3194;DHT22;1608;50.860;13.466;2022-09-27T10:46:23;16.20;99.90
3194;DHT22;1608;50.860;13.466;2022-09-27T10:49:09;16.20;99.90
3194;DHT22;1608;50.860;13.466;2022-09-27T10:51:39;16.20;99.90
3194;DHT22;1608;50.860;13.466;2022-09-27T10:54:17;16.20;99.90
3194;DHT22;1608;50.860;13.466;2022-09-27T10:56:53;16.10;99.90
3194;DHT22;1608;50.860;13.466;2022-09-27T10:59:21;15.90;99.90
3194;DHT22;1608;50.860;13.466;2022-09-27T11:01:48;15.80;99.90
3194;DHT22;1608;50.860;13.466;2022-09-27T11:04:19;15.60;99.90
3194;DHT22;1608;50.860;13.466;2022-09-27T11:06:48;15.40;99.90
3194;DHT22;1608;50.860;13.466;2022-09-27T11:09:19;15.20;99.90
3194;DHT22;1608;50.860;13.466;2022-09-27T11:11:48;15.10;99.90
3194;DHT22;1608;50.860;13.466;2022-09-27T11:14:20;15.30;99.90
3194;DHT22;1608;50.860;13.466;2022-09-27T11:17:03;15.60;99.90
3194;DHT22;1608;50.860;13.466;2022-09-27T11:19:46;15.90;99.90
3194;DHT22;1608;50.860;13.466;2022-09-27T11:22:26;16.00;99.90
3194;DHT22;1608;50.860;13.466;2022-09-27T11:25:06;16.00;99.90
3194;DHT22;1608;50.860;13.466;2022-09-27T11:27:46;16.20;99.90
3194;DHT22;1608;50.860;13.466;2022-09-27T11:30:19;16.30;99.90
3194;DHT22;1608;50.860;13.466;2022-09-27T11:32:58;16.40;99.90
3194;DHT22;1608;50.860;13.466;2022-09-27T11:35:37;16.40;99.90
3194;DHT22;1608;50.860;13.466;2022-09-27T11:38:17;16.30;99.90
3194;DHT22;1608;50.860;13.466;2022-09-27T11:41:02;16.20;99.90
3194;DHT22;1608;50.860;13.466;2022-09-27T11:43:51;16.10;99.90
3194;DHT22;1608;50.860;13.466;2022-09-27T11:46:23;16.30;99.90
3194;DHT22;1608;50.860;13.466;2022-09-27T11:49:21;16.40;99.90
3194;DHT22;1608;50.860;13.466;2022-09-27T11:52:00;16.50;99.90
3194;DHT22;1608;50.860;13.466;2022-09-27T11:54:44;16.60;99.90
3194;DHT22;1608;50.860;13.466;2022-09-27T11:57:19;16.40;99.90
3194;DHT22;1608;50.860;13.466;2022-09-27T12:00:03;16.40;99.90
3194;DHT22;1608;50.860;13.466;2022-09-27T12:02:50;16.40;99.90
3194;DHT22;1608;50.860;13.466;2022-09-27T12:05:31;16.30;99.90
3194;DHT22;1608;50.860;13.466;2022-09-27T12:08:11;16.10;99.90
3194;DHT22;1608;50.860;13.466;2022-09-27T12:10:49;16.00;99.90
3194;DHT22;1608;50.860;13.466;2022-09-27T12:13:26;15.90;99.90
3194;DHT22;1608;50.860;13.466;2022-09-27T12:15:55;16.20;99.90
3194;DHT22;1608;50.860;13.466;2022-09-27T12:18:26;16.20;99.90
3194;DHT22;1608;50.860;13.466;2022-09-27T12:20:56;16.20;99.90
3194;DHT22;1608;50.860;13.466;2022-09-27T12:23:32;16.30;99.90
3194;DHT22;1608;50.860;13.466;2022-09-27T12:26:04;16.30;99.90
3194;DHT22;1608;50.860;13.466;2022-09-27T12:28:36;16.40;99.90
3194;DHT22;1608;50.860;13.466;2022-09-27T12:31:10;16.30;99.90
3194;DHT22;1608;50.860;13.466;2022-09-27T12:33:44;16.60;99.90
3194;DHT22;1608;50.860;13.466;2022-09-27T12:36:17;16.60;99.90
3194;DHT22;1608;50.860;13.466;2022-09-27T12:38:49;16.80;99.90
3194;DHT22;1608;50.860;13.466;2022-09-27T12:41:22;16.80;99.90
3194;DHT22;1608;50.860;13.466;2022-09-27T12:43:50;16.80;99.90
3194;DHT22;1608;50.860;13.466;2022-09-27T12:46:24;16.80;99.90
3194;DHT22;1608;50.860;13.466;2022-09-27T12:49:02;16.90;99.90
3194;DHT22;1608;50.860;13.466;2022-09-27T12:51:33;17.00;99.90
3194;DHT22;1608;50.860;13.466;2022-09-27T12:54:20;16.90;99.90
3194;DHT22;1608;50.860;13.466;2022-09-27T12:56:57;16.80;99.90
3194;DHT22;1608;50.860;13.466;2022-09-27T12:59:38;16.70;99.90
3194;DHT22;1608;50.860;13.466;2022-09-27T13:02:38;16.50;99.90
3194;DHT22;1608;50.860;13.466;2022-09-27T13:05:25;16.30;99.90
3194;DHT22;1608;50.860;13.466;2022-09-27T13:08:09;16.30;99.90
3194;DHT22;1608;50.860;13.466;2022-09-27T13:10:48;16.30;99.90
3194;DHT22;1608;50.860;13.466;2022-09-27T13:13:21;16.30;99.90
3194;DHT22;1608;50.860;13.466;2022-09-27T13:15:55;16.50;99.90
3194;DHT22;1608;50.860;13.466;2022-09-27T13:18:53;16.60;99.90
3194;DHT22;1608;50.860;13.466;2022-09-27T13:21:56;16.50;99.90
3194;DHT22;1608;50.860;13.466;2022-09-27T13:24:45;16.30;99.90
3194;DHT22;1608;50.860;13.466;2022-09-27T13:27:42;16.20;99.90
3194;DHT22;1608;50.860;13.466;2022-09-27T13:33:44;15.70;99.90
3194;DHT22;1608;50.860;13.466;2022-09-27T13:36:24;15.70;99.90
3194;DHT22;1608;50.860;13.466;2022-09-27T13:39:05;15.70;99.90
3194;DHT22;1608;50.860;13.466;2022-09-27T13:42:01;15.60;99.90
3194;DHT22;1608;50.860;13.466;2022-09-27T13:44:43;15.60;99.90
3194;DHT22;1608;50.860;13.466;2022-09-27T13:47:22;15.50;99.90
3194;DHT22;1608;50.860;13.466;2022-09-27T13:49:56;15.50;99.90
3194;DHT22;1608;50.860;13.466;2022-09-27T13:52:28;15.40;99.90
3194;DHT22;1608;50.860;13.466;2022-09-27T13:54:59;15.20;99.90
3194;DHT22;1608;50.860;13.466;2022-09-27T13:57:50;15.30;99.90
3194;DHT22;1608;50.860;13.466;2022-09-27T14:00:19;15.50;99.90
3194;DHT22;1608;50.860;13.466;2022-09-27T14:02:59;15.60;99.90
3194;DHT22;1608;50.860;13.466;2022-09-27T14:05:33;15.70;99.90
3194;DHT22;1608;50.860;13.466;2022-09-27T14:08:04;15.50;99.90
3194;DHT22;1608;50.860;13.466;2022-09-27T14:10:34;15.50;99.90
3194;DHT22;1608;50.860;13.466;2022-09-27T14:13:03;15.20;99.90
3194;DHT22;1608;50.860;13.466;2022-09-27T14:15:31;15.20;99.90
3194;DHT22;1608;50.860;13.466;2022-09-27T14:17:58;15.30;99.90
3194;DHT22;1608;50.860;13.466;2022-09-27T14:20:31;15.30;99.90
3194;DHT22;1608;50.860;13.466;2022-09-27T14:22:59;15.40;99.90
3194;DHT22;1608;50.860;13.466;2022-09-27T14:25:26;15.50;99.90
3194;DHT22;1608;50.860;13.466;2022-09-27T14:27:53;15.40;99.90
3194;DHT22;1608;50.860;13.466;2022-09-27T14:30:22;15.40;99.90
3194;DHT22;1608;50.860;13.466;2022-09-27T14:32:51;15.40;99.90
3194;DHT22;1608;50.860;13.466;2022-09-27T14:35:21;15.50;99.90
3194;DHT22;1608;50.860;13.466;2022-09-27T14:38:10;15.50;99.90
3194;DHT22;1608;50.860;13.466;2022-09-27T14:40:39;15.50;99.90
3194;DHT22;1608;50.860;13.466;2022-09-27T14:43:14;15.50;99.90
3194;DHT22;1608;50.860;13.466;2022-09-27T14:45:42;15.50;99.90
3194;DHT22;1608;50.860;13.466;2022-09-27T14:48:20;15.50;99.90
3194;DHT22;1608;50.860;13.466;2022-09-27T14:50:54;15.40;99.90
3194;DHT22;1608;50.860;13.466;2022-09-27T14:53:28;15.20;99.90
3194;DHT22;1608;50.860;13.466;2022-09-27T14:55:55;15.10;99.90
3194;DHT22;1608;50.860;13.466;2022-09-27T14:58:23;15.10;99.90
3194;DHT22;1608;50.860;13.466;2022-09-27T15:00:51;15.10;99.90
3194;DHT22;1608;50.860;13.466;2022-09-27T15:03:21;15.00;99.90
3194;DHT22;1608;50.860;13.466;2022-09-27T15:05:50;14.90;99.90
3194;DHT22;1608;50.860;13.466;2022-09-27T15:08:20;14.70;99.90
3194;DHT22;1608;50.860;13.466;2022-09-27T15:10:49;14.70;99.90
3194;DHT22;1608;50.860;13.466;2022-09-27T15:13:17;14.50;99.90
3194;DHT22;1608;50.860;13.466;2022-09-27T15:15:45;14.20;99.90
3194;DHT22;1608;50.860;13.466;2022-09-27T15:18:38;13.60;99.90
3194;DHT22;1608;50.860;13.466;2022-09-27T15:21:06;13.20;99.90
3194;DHT22;1608;50.860;13.466;2022-09-27T15:23:35;13.10;99.90
3194;DHT22;1608;50.860;13.466;2022-09-27T15:26:08;13.00;99.90
3194;DHT22;1608;50.860;13.466;2022-09-27T15:28:36;13.30;99.90
3194;DHT22;1608;50.860;13.466;2022-09-27T15:31:07;13.60;99.90
3194;DHT22;1608;50.860;13.466;2022-09-27T15:33:34;13.90;99.90
3194;DHT22;1608;50.860;13.466;2022-09-27T15:36:03;14.10;99.90
3194;DHT22;1608;50.860;13.466;2022-09-27T15:38:32;14.30;99.90
3194;DHT22;1608;50.860;13.466;2022-09-27T15:41:02;14.20;99.90
3194;DHT22;1608;50.860;13.466;2022-09-27T15:43:32;14.00;99.90
3194;DHT22;1608;50.860;13.466;2022-09-27T15:46:02;13.80;99.90
3194;DHT22;1608;50.860;13.466;2022-09-27T15:48:30;13.70;99.90
3194;DHT22;1608;50.860;13.466;2022-09-27T15:50:58;13.60;99.90
3194;DHT22;1608;50.860;13.466;2022-09-27T15:53:41;13.60;99.90
3194;DHT22;1608;50.860;13.466;2022-09-27T15:56:13;13.40;99.90
3194;DHT22;1608;50.860;13.466;2022-09-27T15:58:42;13.40;99.90
3194;DHT22;1608;50.860;13.466;2022-09-27T16:01:19;13.50;99.90
3194;DHT22;1608;50.860;13.466;2022-09-27T16:03:47;13.70;99.90
3194;DHT22;1608;50.860;13.466;2022-09-27T16:06:14;13.70;99.90
3194;DHT22;1608;50.860;13.466;2022-09-27T16:08:41;13.60;99.90
3194;DHT22;1608;50.860;13.466;2022-09-27T16:11:12;13.40;99.90
3194;DHT22;1608;50.860;13.466;2022-09-27T16:13:39;13.00;99.90
3194;DHT22;1608;50.860;13.466;2022-09-27T16:16:15;12.90;99.90
3194;DHT22;1608;50.860;13.466;2022-09-27T16:18:44;13.00;99.90
3194;DHT22;1608;50.860;13.466;2022-09-27T16:21:11;13.10;99.90